Time;durP1;ratioP1;P1;durP2;ratioP2;P2;SDS_P1;SDS_P2;PMS_P1;PMS_P2;Temp;Humidity;BMP_temperature;BMP_pressure;BME280_temperature;BME280_humidity;BME280_pressure;Samples;Min_cycle;Max_cycle;Signal;HPM_P1;HPM_P2
2021/09/24 00:02:12;;;;;;;15.67;6.33;;;16.90;99.90;;;;;;5033395;28;20210;-77
2021/09/24 00:04:38;;;;;;;14.23;6.23;;;17.00;99.90;;;;;;5050829;28;20260;-77
2021/09/24 00:07:05;;;;;;;12.20;6.03;;;17.10;99.90;;;;;;5047469;28;20219;-77
2021/09/24 00:09:30;;;;;;;15.03;6.70;;;17.20;99.90;;;;;;5045130;28;20224;-76
2021/09/24 00:11:56;;;;;;;15.73;6.67;;;17.30;99.90;;;;;;5049483;28;20191;-77
2021/09/24 00:14:22;;;;;;;17.87;7.63;;;17.40;99.90;;;;;;5047247;28;20184;-77
2021/09/24 00:16:48;;;;;;;15.93;6.90;;;17.40;99.90;;;;;;5050281;28;20216;-77
2021/09/24 00:19:13;;;;;;;20.80;7.30;;;17.40;99.90;;;;;;5049040;28;20184;-78
2021/09/24 00:21:39;;;;;;;14.50;6.80;;;17.50;99.90;;;;;;5049053;28;20249;-78
2021/09/24 00:24:05;;;;;;;15.00;7.07;;;17.50;99.90;;;;;;5082125;28;20712;-77
2021/09/24 00:26:31;;;;;;;15.90;7.70;;;17.60;99.90;;;;;;5041579;28;20221;-77
2021/09/24 00:28:58;;;;;;;15.20;7.90;;;17.60;99.90;;;;;;5046763;28;20191;-77
2021/09/24 00:31:24;;;;;;;18.67;7.97;;;17.80;99.90;;;;;;5044547;28;20564;-77
2021/09/24 00:33:50;;;;;;;17.63;7.93;;;17.80;99.90;;;;;;5047898;28;20194;-78
2021/09/24 00:36:16;;;;;;;18.23;7.30;;;17.80;99.90;;;;;;5046784;28;20191;-78
2021/09/24 00:38:42;;;;;;;16.50;7.60;;;17.80;99.90;;;;;;5022523;28;20191;-78
2021/09/24 00:41:09;;;;;;;18.53;7.90;;;17.80;99.90;;;;;;5049368;28;20220;-78
2021/09/24 00:43:35;;;;;;;16.63;7.73;;;17.80;99.90;;;;;;5061077;28;20719;-78
2021/09/24 00:46:04;;;;;;;20.17;8.33;;;17.90;99.90;;;;;;5050551;28;20196;-78
2021/09/24 00:48:31;;;;;;;18.37;8.00;;;17.90;99.90;;;;;;5051866;28;20184;-80
2021/09/24 00:50:57;;;;;;;18.07;8.70;;;18.00;99.90;;;;;;5049929;28;20211;-80
2021/09/24 00:53:24;;;;;;;15.97;8.00;;;18.00;99.90;;;;;;5049681;28;20207;-79
2021/09/24 00:55:50;;;;;;;14.97;7.90;;;18.10;99.90;;;;;;5034847;28;20666;-79
2021/09/24 00:58:19;;;;;;;21.00;8.53;;;18.00;99.90;;;;;;5048929;28;20547;-80
2021/09/24 01:00:45;;;;;;;18.27;8.60;;;18.10;99.90;;;;;;5052628;28;20176;-80
2021/09/24 01:03:10;;;;;;;19.23;8.13;;;18.00;99.90;;;;;;5045581;28;20215;-79
2021/09/24 01:05:36;;;;;;;18.23;8.50;;;18.10;99.90;;;;;;5050155;28;20191;-80
2021/09/24 01:08:02;;;;;;;16.60;8.40;;;18.10;99.90;;;;;;5053617;28;20204;-79
2021/09/24 01:10:28;;;;;;;17.80;8.40;;;18.10;99.90;;;;;;5049649;28;20236;-79
2021/09/24 01:12:54;;;;;;;20.87;9.20;;;18.10;99.90;;;;;;5084299;28;20269;-80
2021/09/24 01:15:21;;;;;;;17.77;8.83;;;18.20;99.90;;;;;;5048966;28;20186;-80
2021/09/24 01:17:49;;;;;;;21.50;10.07;;;18.10;99.90;;;;;;5050637;28;20183;-79
2021/09/24 01:20:18;;;;;;;21.30;9.47;;;18.20;99.90;;;;;;5029937;28;20187;-79
2021/09/24 01:22:51;;;;;;;18.47;9.03;;;18.20;99.90;;;;;;5051262;28;20217;-79
2021/09/24 01:25:19;;;;;;;19.03;8.90;;;18.30;99.90;;;;;;5043874;28;20219;-79
2021/09/24 01:27:45;;;;;;;17.07;9.03;;;18.30;99.90;;;;;;5049045;28;20191;-79
2021/09/24 01:30:12;;;;;;;18.13;8.90;;;18.20;99.90;;;;;;5029304;28;20212;-79
2021/09/24 01:32:38;;;;;;;21.10;9.30;;;18.30;99.90;;;;;;5047778;28;21593;-79
2021/09/24 01:35:06;;;;;;;20.00;8.87;;;18.30;99.90;;;;;;5054932;28;20222;-79
2021/09/24 01:37:33;;;;;;;20.60;9.23;;;18.30;99.90;;;;;;5045890;28;20194;-79
2021/09/24 01:39:59;;;;;;;16.77;9.70;;;18.40;99.90;;;;;;5052820;28;20202;-79
2021/09/24 01:42:25;;;;;;;20.17;9.80;;;18.40;99.90;;;;;;5042026;28;20191;-79
2021/09/24 01:44:50;;;;;;;24.97;9.63;;;18.40;99.90;;;;;;5036318;28;20181;-79
2021/09/24 01:47:16;;;;;;;20.43;9.43;;;18.40;99.90;;;;;;5053719;28;20238;-79
2021/09/24 01:49:42;;;;;;;21.23;9.53;;;18.40;99.90;;;;;;5053139;28;20628;-79
2021/09/24 01:52:08;;;;;;;21.47;9.57;;;18.40;99.90;;;;;;5053212;28;20185;-79
2021/09/24 01:54:34;;;;;;;21.00;9.07;;;18.40;99.90;;;;;;5053025;28;20638;-79
2021/09/24 01:57:00;;;;;;;24.00;9.50;;;18.30;99.90;;;;;;5052258;28;20271;-79
2021/09/24 01:59:26;;;;;;;23.93;9.80;;;18.30;99.90;;;;;;5053758;28;20178;-78
2021/09/24 02:01:52;;;;;;;20.33;9.83;;;18.30;99.90;;;;;;5052596;28;20272;-79
2021/09/24 02:04:18;;;;;;;20.17;10.00;;;18.30;99.90;;;;;;5052240;28;20554;-79
2021/09/24 02:06:44;;;;;;;20.87;9.23;;;18.40;99.90;;;;;;5051827;28;20209;-79
2021/09/24 02:09:11;;;;;;;22.40;9.73;;;18.40;99.90;;;;;;5052388;28;20715;-79
2021/09/24 02:11:37;;;;;;;23.37;9.93;;;18.40;99.90;;;;;;5056393;28;20199;-79
2021/09/24 02:14:03;;;;;;;20.77;9.90;;;18.50;99.90;;;;;;5052052;28;20186;-79
2021/09/24 02:16:29;;;;;;;17.63;10.10;;;18.40;99.90;;;;;;5053303;28;20223;-79
2021/09/24 02:18:55;;;;;;;18.73;9.63;;;18.40;99.90;;;;;;5044448;28;20202;-79
2021/09/24 02:21:21;;;;;;;18.77;9.77;;;18.40;99.90;;;;;;5035030;28;20594;-79
2021/09/24 02:23:47;;;;;;;24.80;10.20;;;18.50;99.90;;;;;;5054543;28;20205;-79
2021/09/24 02:26:13;;;;;;;18.20;10.27;;;18.50;99.90;;;;;;5049541;28;20211;-79
2021/09/24 02:28:39;;;;;;;24.87;10.00;;;18.50;99.90;;;;;;5053183;28;20177;-79
2021/09/24 02:31:09;;;;;;;17.83;9.30;;;18.40;99.90;;;;;;5043597;28;20219;-79
2021/09/24 02:33:36;;;;;;;16.70;9.53;;;18.30;99.90;;;;;;5053314;28;20200;-79
2021/09/24 02:36:04;;;;;;;22.90;10.10;;;18.30;99.90;;;;;;5047552;28;20207;-79
2021/09/24 02:38:33;;;;;;;21.67;10.67;;;18.40;99.90;;;;;;5050314;28;20202;-79
2021/09/24 02:40:59;;;;;;;20.33;9.27;;;18.40;99.90;;;;;;5054326;28;20176;-79
2021/09/24 02:43:26;;;;;;;20.60;9.80;;;18.40;99.90;;;;;;5052740;28;20177;-80
2021/09/24 02:45:51;;;;;;;21.70;9.70;;;18.30;99.90;;;;;;5053135;28;20230;-79
2021/09/24 02:48:17;;;;;;;20.33;9.70;;;18.40;99.90;;;;;;5033652;28;20180;-79
2021/09/24 02:50:43;;;;;;;20.60;10.30;;;18.40;99.90;;;;;;5032215;28;20229;-79
2021/09/24 02:53:09;;;;;;;19.47;9.53;;;18.40;99.90;;;;;;5042027;28;20177;-79
2021/09/24 02:55:35;;;;;;;20.73;10.07;;;18.40;99.90;;;;;;5035107;28;20207;-78
2021/09/24 02:58:00;;;;;;;23.20;10.23;;;18.40;99.90;;;;;;5053061;28;20184;-80
2021/09/24 03:00:27;;;;;;;21.37;9.37;;;18.40;99.90;;;;;;5024054;28;20196;-79
2021/09/24 03:02:53;;;;;;;18.53;9.07;;;18.40;99.90;;;;;;5053827;28;20255;-79
2021/09/24 03:05:19;;;;;;;15.80;8.63;;;18.40;99.90;;;;;;5042013;28;20195;-79
2021/09/24 03:07:45;;;;;;;17.67;8.70;;;18.50;99.90;;;;;;5051928;28;20244;-79
2021/09/24 03:10:11;;;;;;;18.73;9.43;;;18.40;99.90;;;;;;5051137;28;20271;-77
2021/09/24 03:12:37;;;;;;;18.10;9.03;;;18.40;99.90;;;;;;5048342;28;20177;-79
2021/09/24 03:15:06;;;;;;;16.67;8.97;;;18.40;99.90;;;;;;5049675;28;20616;-77
2021/09/24 03:17:32;;;;;;;18.00;8.30;;;18.40;99.90;;;;;;5051315;28;20169;-76
2021/09/24 03:19:57;;;;;;;23.67;9.43;;;18.40;99.90;;;;;;5052257;28;20188;-76
2021/09/24 03:22:23;;;;;;;16.67;8.77;;;18.40;99.90;;;;;;5050721;28;20593;-77
2021/09/24 03:24:49;;;;;;;20.60;8.73;;;18.40;99.90;;;;;;5047894;28;20210;-77
2021/09/24 03:27:15;;;;;;;18.03;8.50;;;18.40;99.90;;;;;;5051210;28;20188;-77
2021/09/24 03:29:40;;;;;;;19.63;8.93;;;18.40;99.90;;;;;;5041680;28;20217;-77
2021/09/24 03:32:07;;;;;;;17.93;8.23;;;18.40;99.90;;;;;;5052072;28;20687;-79
2021/09/24 03:34:33;;;;;;;17.67;8.50;;;18.50;99.90;;;;;;5054960;28;20271;-79
2021/09/24 03:36:59;;;;;;;16.13;8.00;;;18.40;99.90;;;;;;5047676;28;20661;-79
2021/09/24 03:39:24;;;;;;;18.63;8.30;;;18.40;99.90;;;;;;5052667;28;20180;-80
2021/09/24 03:41:54;;;;;;;17.83;7.60;;;18.50;99.90;;;;;;5057746;28;20188;-78
2021/09/24 03:44:20;;;;;;;17.23;8.00;;;18.50;99.90;;;;;;5052074;28;20256;-78
2021/09/24 03:46:46;;;;;;;16.20;8.50;;;18.50;99.90;;;;;;5051005;28;20172;-78
2021/09/24 03:49:12;;;;;;;16.47;8.03;;;18.50;99.90;;;;;;5052831;28;20174;-78
2021/09/24 03:51:38;;;;;;;23.23;8.53;;;18.50;99.90;;;;;;5052631;28;20213;-78
2021/09/24 03:54:04;;;;;;;19.63;7.87;;;18.40;99.90;;;;;;5043731;28;20212;-77
2021/09/24 03:56:30;;;;;;;15.93;8.07;;;18.40;99.90;;;;;;5050449;28;20172;-77
2021/09/24 03:58:56;;;;;;;20.67;9.03;;;18.40;99.90;;;;;;5041840;28;20182;-78
2021/09/24 04:01:22;;;;;;;17.50;9.13;;;18.40;99.90;;;;;;5049379;28;20241;-78
2021/09/24 04:03:47;;;;;;;21.80;9.07;;;18.40;99.90;;;;;;5053657;28;20197;-78
2021/09/24 04:06:13;;;;;;;26.33;10.90;;;18.50;99.90;;;;;;5049935;28;20183;-78
2021/09/24 04:08:39;;;;;;;22.17;9.50;;;18.50;99.90;;;;;;5049633;28;20220;-77
2021/09/24 04:11:06;;;;;;;27.77;11.20;;;18.60;99.90;;;;;;5045498;28;20700;-78
2021/09/24 04:13:32;;;;;;;25.20;10.47;;;18.60;99.90;;;;;;5052028;28;20189;-78
2021/09/24 04:15:57;;;;;;;24.17;10.80;;;18.50;99.90;;;;;;5045088;28;20181;-79
2021/09/24 04:18:23;;;;;;;22.50;11.87;;;18.40;99.90;;;;;;5051184;28;20269;-79
2021/09/24 04:20:49;;;;;;;26.17;12.70;;;18.40;99.90;;;;;;5050109;28;20200;-79
2021/09/24 04:23:19;;;;;;;26.53;12.90;;;18.50;99.90;;;;;;5049797;28;20209;-79
2021/09/24 04:25:44;;;;;;;28.20;12.77;;;18.40;99.90;;;;;;5049302;28;20215;-79
2021/09/24 04:28:10;;;;;;;29.27;13.47;;;18.40;99.90;;;;;;5050970;28;20191;-80
2021/09/24 04:30:36;;;;;;;32.30;13.97;;;18.40;99.90;;;;;;5053483;28;20207;-80
2021/09/24 04:33:02;;;;;;;29.87;14.00;;;18.40;99.90;;;;;;5053672;28;20180;-79
2021/09/24 04:35:28;;;;;;;29.17;14.67;;;18.30;99.90;;;;;;5052428;28;20651;-79
2021/09/24 04:37:53;;;;;;;35.63;14.20;;;18.30;99.90;;;;;;5051275;28;20193;-80
2021/09/24 04:40:19;;;;;;;28.37;14.13;;;18.30;99.90;;;;;;5087940;28;20693;-79
2021/09/24 04:42:46;;;;;;;32.73;14.50;;;18.30;99.90;;;;;;5085501;28;20352;-79
2021/09/24 04:45:12;;;;;;;29.67;13.93;;;18.40;99.90;;;;;;5052866;28;20680;-77
2021/09/24 04:47:38;;;;;;;31.37;15.17;;;18.30;99.90;;;;;;5050881;28;20195;-77
2021/09/24 04:50:08;;;;;;;31.07;16.13;;;18.40;99.90;;;;;;5053732;28;20202;-77
2021/09/24 04:52:34;;;;;;;35.63;15.77;;;18.40;99.90;;;;;;5033703;28;20208;-77
2021/09/24 04:55:00;;;;;;;29.87;14.93;;;18.30;99.90;;;;;;5052539;28;20181;-77
2021/09/24 04:57:29;;;;;;;32.73;14.60;;;18.30;99.90;;;;;;5050252;28;20238;-78
2021/09/24 04:59:55;;;;;;;31.50;15.87;;;18.30;99.90;;;;;;5050712;28;20267;-79
2021/09/24 05:02:21;;;;;;;33.37;16.90;;;18.30;99.90;;;;;;5048425;28;20223;-85
2021/09/24 05:04:46;;;;;;;35.10;16.53;;;18.40;99.90;;;;;;5046144;28;20198;-83
2021/09/24 05:07:12;;;;;;;35.73;16.30;;;18.30;99.90;;;;;;5039634;28;20209;-85
2021/09/24 05:09:38;;;;;;;34.13;17.27;;;18.30;99.90;;;;;;5040019;28;20273;-80
2021/09/24 05:12:04;;;;;;;34.93;16.70;;;18.30;99.90;;;;;;5053009;28;20438;-78
2021/09/24 05:14:30;;;;;;;32.37;17.03;;;18.20;99.90;;;;;;5055089;28;20191;-79
2021/09/24 05:16:56;;;;;;;35.92;16.65;;;18.20;99.90;;;;;;5032972;28;20068;-79
2021/09/24 05:19:22;;;;;;;38.60;17.37;;;18.30;99.90;;;;;;5034870;28;20188;-78
2021/09/24 05:21:48;;;;;;;39.17;17.20;;;18.30;99.90;;;;;;5045537;28;20208;-79
2021/09/24 05:24:14;;;;;;;36.53;16.07;;;18.30;99.90;;;;;;5052297;28;20195;-79
2021/09/24 05:26:39;;;;;;;34.63;16.80;;;18.40;99.90;;;;;;5034972;28;20177;-79
2021/09/24 05:29:06;;;;;;;40.33;16.53;;;18.40;99.90;;;;;;5048883;28;20681;-79
2021/09/24 05:31:32;;;;;;;29.87;17.10;;;18.40;99.90;;;;;;5050056;28;20789;-79
2021/09/24 05:33:59;;;;;;;36.40;16.87;;;18.50;99.90;;;;;;5049808;28;20172;-79
2021/09/24 05:36:25;;;;;;;33.43;16.63;;;18.50;99.90;;;;;;5050190;28;20197;-80
2021/09/24 05:38:50;;;;;;;36.27;17.10;;;18.50;99.90;;;;;;5051844;28;20255;-81
2021/09/24 05:41:16;;;;;;;34.77;17.03;;;18.50;99.90;;;;;;5053289;28;20672;-81
2021/09/24 05:43:42;;;;;;;35.70;16.93;;;18.60;99.90;;;;;;5054156;28;20192;-79
2021/09/24 05:46:09;;;;;;;36.67;17.57;;;18.60;99.90;;;;;;5050538;28;20187;-76
2021/09/24 05:48:35;;;;;;;33.07;17.00;;;18.60;99.90;;;;;;5050543;28;20199;-76
2021/09/24 05:51:01;;;;;;;37.33;17.50;;;18.70;99.90;;;;;;5045694;28;20632;-76
2021/09/24 05:53:27;;;;;;;37.47;16.50;;;18.60;99.90;;;;;;5047914;28;20193;-76
2021/09/24 05:55:53;;;;;;;34.20;17.17;;;18.60;99.90;;;;;;5050989;28;20184;-76
2021/09/24 05:58:19;;;;;;;35.53;16.87;;;18.70;99.90;;;;;;5047010;28;20187;-75
2021/09/24 06:00:44;;;;;;;34.93;16.90;;;18.70;99.90;;;;;;5049319;28;20883;-76
2021/09/24 06:03:10;;;;;;;31.13;16.57;;;18.70;99.90;;;;;;5051132;28;20196;-76
2021/09/24 06:05:36;;;;;;;40.40;17.47;;;18.70;99.90;;;;;;5051590;28;20275;-76
2021/09/24 06:08:01;;;;;;;31.07;16.77;;;18.70;99.90;;;;;;5043211;28;20637;-76
2021/09/24 06:10:27;;;;;;;40.97;17.53;;;18.70;99.90;;;;;;5046841;28;20255;-76
2021/09/24 06:12:53;;;;;;;32.60;17.93;;;18.70;99.90;;;;;;5050603;28;20181;-76
2021/09/24 06:15:21;;;;;;;39.60;17.57;;;18.80;99.90;;;;;;5040662;28;20193;-75
2021/09/24 06:17:48;;;;;;;43.23;18.17;;;18.80;99.90;;;;;;5047886;28;20260;-76
2021/09/24 06:20:14;;;;;;;37.57;17.10;;;18.80;99.90;;;;;;5050737;28;20190;-75
2021/09/24 06:22:41;;;;;;;35.63;17.67;;;18.70;99.90;;;;;;5049705;28;20193;-76
2021/09/24 06:25:08;;;;;;;40.60;18.80;;;18.80;99.90;;;;;;5048838;28;20524;-75
2021/09/24 06:27:36;;;;;;;36.73;18.03;;;18.80;99.90;;;;;;5047088;28;20192;-76
2021/09/24 06:30:05;;;;;;;38.43;17.80;;;18.70;99.90;;;;;;5050161;28;20200;-76
2021/09/24 06:32:30;;;;;;;44.13;17.57;;;18.80;99.90;;;;;;5047743;28;20192;-76
2021/09/24 06:34:56;;;;;;;39.60;17.23;;;18.80;99.90;;;;;;5049093;28;20193;-75
2021/09/24 06:37:22;;;;;;;35.57;17.40;;;18.80;99.90;;;;;;5050548;28;20197;-76
2021/09/24 06:39:48;;;;;;;38.73;18.17;;;18.80;99.90;;;;;;5047773;28;20186;-76
2021/09/24 06:42:14;;;;;;;39.33;17.03;;;18.90;99.90;;;;;;5048024;28;20689;-76
2021/09/24 06:44:40;;;;;;;34.33;16.80;;;19.00;99.90;;;;;;5048894;28;20187;-75
2021/09/24 06:47:06;;;;;;;37.47;17.83;;;18.90;99.90;;;;;;5049025;28;20562;-76
2021/09/24 06:49:34;;;;;;;41.53;19.00;;;19.00;99.90;;;;;;5046151;28;20172;-76
2021/09/24 06:51:59;;;;;;;34.73;17.80;;;19.00;99.90;;;;;;5049561;28;20209;-76
2021/09/24 06:54:26;;;;;;;41.37;17.83;;;19.00;99.90;;;;;;5052960;28;20180;-75
2021/09/24 06:56:52;;;;;;;35.73;18.17;;;19.10;99.90;;;;;;5049496;28;21354;-75
2021/09/24 06:59:18;;;;;;;40.47;17.77;;;19.10;99.90;;;;;;5047423;28;20191;-76
2021/09/24 07:01:44;;;;;;;35.83;17.60;;;19.10;99.90;;;;;;5045028;28;20190;-76
2021/09/24 07:04:14;;;;;;;37.33;17.63;;;19.10;99.90;;;;;;5049626;28;20505;-75
2021/09/24 07:06:40;;;;;;;39.37;17.87;;;19.10;99.90;;;;;;5051541;28;20520;-76
2021/09/24 07:09:06;;;;;;;41.17;17.93;;;19.20;99.90;;;;;;5045571;28;20235;-76
2021/09/24 07:11:33;;;;;;;34.23;16.63;;;19.20;99.90;;;;;;5047158;28;20219;-75
2021/09/24 07:13:59;;;;;;;36.60;16.23;;;19.30;99.90;;;;;;5044602;28;20708;-77
2021/09/24 07:16:25;;;;;;;35.70;17.23;;;19.30;99.90;;;;;;5047530;28;20187;-76
2021/09/24 07:18:51;;;;;;;42.17;17.33;;;19.30;99.90;;;;;;5049713;28;20201;-76
2021/09/24 07:21:17;;;;;;;36.33;16.70;;;19.30;99.90;;;;;;5044663;28;20204;-74
2021/09/24 07:23:44;;;;;;;37.80;17.10;;;19.40;99.90;;;;;;5046306;28;20237;-76
2021/09/24 07:26:09;;;;;;;34.73;16.57;;;19.50;99.90;;;;;;5039772;28;20234;-75
2021/09/24 07:28:36;;;;;;;33.07;16.73;;;19.60;99.90;;;;;;5046991;28;20256;-74
2021/09/24 07:31:02;;;;;;;32.00;15.47;;;19.80;99.90;;;;;;5045653;28;20250;-75
2021/09/24 07:33:27;;;;;;;34.27;15.27;;;19.80;99.90;;;;;;5046223;28;20183;-75
2021/09/24 07:35:53;;;;;;;28.53;14.77;;;20.00;99.90;;;;;;5051298;28;20648;-75
2021/09/24 07:38:21;;;;;;;45.83;14.77;;;20.20;99.90;;;;;;5046922;28;20246;-74
2021/09/24 07:40:47;;;;;;;24.73;13.53;;;20.50;99.90;;;;;;5049096;28;20184;-76
2021/09/24 07:43:14;;;;;;;26.97;14.23;;;20.70;99.90;;;;;;5047416;28;20280;-76
2021/09/24 07:45:40;;;;;;;28.00;13.87;;;20.80;99.90;;;;;;5046872;28;20195;-75
2021/09/24 07:48:06;;;;;;;25.00;13.83;;;21.40;99.90;;;;;;5050500;28;20185;-75
2021/09/24 07:50:32;;;;;;;29.23;13.90;;;22.00;99.90;;;;;;5045206;28;20217;-75
2021/09/24 07:52:58;;;;;;;24.00;13.00;;;22.40;99.90;;;;;;5048466;28;20192;-75
2021/09/24 07:55:24;;;;;;;22.70;12.20;;;22.90;99.90;;;;;;5047632;28;20199;-75
2021/09/24 07:57:55;;;;;;;34.17;13.87;;;22.60;99.90;;;;;;5047655;28;20195;-75
2021/09/24 08:00:22;;;;;;;27.20;13.63;;;22.50;99.90;;;;;;5043118;28;20187;-75
2021/09/24 08:02:49;;;;;;;29.57;14.07;;;22.30;99.90;;;;;;5047870;28;20227;-75
2021/09/24 08:05:15;;;;;;;27.13;14.80;;;22.30;99.90;;;;;;5050086;28;20203;-75
2021/09/24 08:07:41;;;;;;;34.43;15.30;;;22.20;99.90;;;;;;5046604;28;20206;-75
2021/09/24 08:10:07;;;;;;;27.60;14.70;;;22.00;99.90;;;;;;5046960;28;20237;-75
2021/09/24 08:12:33;;;;;;;28.13;14.40;;;21.80;99.90;;;;;;5049549;28;20569;-75
2021/09/24 08:14:59;;;;;;;31.13;15.57;;;21.60;99.90;;;;;;5046904;28;20201;-75
2021/09/24 08:17:25;;;;;;;31.27;15.20;;;21.60;99.90;;;;;;5049351;28;20578;-75
2021/09/24 08:19:51;;;;;;;27.17;14.23;;;21.80;99.90;;;;;;5044169;28;20223;-75
2021/09/24 08:22:16;;;;;;;34.23;14.67;;;22.00;99.90;;;;;;5047239;28;20191;-75
2021/09/24 08:24:42;;;;;;;32.33;13.60;;;22.00;99.90;;;;;;5041437;28;20651;-77
2021/09/24 08:27:09;;;;;;;31.87;13.10;;;22.20;99.90;;;;;;5046805;28;20520;-76
2021/09/24 08:29:35;;;;;;;25.97;12.03;;;22.20;99.90;;;;;;5040319;28;20233;-76
2021/09/24 08:32:01;;;;;;;26.17;12.77;;;22.20;99.90;;;;;;5046634;28;20199;-76
2021/09/24 08:34:27;;;;;;;25.43;11.93;;;22.30;99.90;;;;;;5046572;28;20180;-76
2021/09/24 08:36:53;;;;;;;28.57;11.33;;;22.50;99.90;;;;;;5041363;28;20203;-76
2021/09/24 08:39:19;;;;;;;25.73;11.27;;;22.70;99.90;;;;;;5066618;28;20194;-76
2021/09/24 08:41:45;;;;;;;22.33;10.47;;;22.70;99.90;;;;;;5051932;28;20199;-76
2021/09/24 08:44:10;;;;;;;24.27;11.47;;;22.40;99.90;;;;;;5050540;28;20198;-77
2021/09/24 08:46:37;;;;;;;21.70;9.83;;;22.10;99.90;;;;;;5053470;28;20191;-76
2021/09/24 08:49:04;;;;;;;21.80;10.57;;;21.90;99.90;;;;;;5045085;28;20196;-76
2021/09/24 08:51:30;;;;;;;24.53;11.40;;;21.70;99.90;;;;;;5048984;28;20210;-76
2021/09/24 08:53:56;;;;;;;21.33;10.37;;;21.40;99.90;;;;;;5050753;28;20205;-76
2021/09/24 08:56:22;;;;;;;22.87;10.47;;;21.20;99.90;;;;;;5050316;28;20189;-76
2021/09/24 08:58:49;;;;;;;22.97;10.73;;;21.20;99.90;;;;;;5053371;28;20188;-76
2021/09/24 09:01:15;;;;;;;25.53;10.80;;;21.10;99.90;;;;;;5051158;28;20235;-76
2021/09/24 09:03:44;;;;;;;22.27;9.73;;;21.30;99.90;;;;;;5053616;28;20183;-76
2021/09/24 09:06:13;;;;;;;25.17;9.70;;;21.70;99.90;;;;;;5051116;28;20556;-75
2021/09/24 09:08:39;;;;;;;22.13;10.20;;;22.10;99.90;;;;;;5081681;28;20223;-76
2021/09/24 09:11:07;;;;;;;16.83;8.80;;;22.40;99.90;;;;;;5049719;28;20210;-76
2021/09/24 09:13:39;;;;;;;19.47;8.77;;;22.80;99.90;;;;;;5034209;28;20201;-76
2021/09/24 09:16:29;;;;;;;18.07;8.53;;;23.10;99.90;;;;;;5054031;28;20179;-76
2021/09/24 09:19:15;;;;;;;21.93;8.27;;;23.40;99.90;;;;;;5050740;28;20592;-76
2021/09/24 09:21:44;;;;;;;16.90;7.67;;;23.30;99.90;;;;;;5066697;28;20190;-76
2021/09/24 09:24:24;;;;;;;20.63;7.40;;;23.60;99.90;;;;;;5048001;28;20696;-76
2021/09/24 09:27:20;;;;;;;15.20;7.43;;;23.90;99.90;;;;;;5050417;28;20199;-76
2021/09/24 09:30:01;;;;;;;14.23;7.53;;;24.10;99.90;;;;;;5048628;28;20189;-76
2021/09/24 09:32:27;;;;;;;17.40;7.90;;;24.10;99.90;;;;;;5050749;28;20245;-76
2021/09/24 09:34:53;;;;;;;18.77;7.53;;;24.10;99.90;;;;;;5051564;28;20177;-76
2021/09/24 09:37:20;;;;;;;16.37;7.43;;;24.00;99.90;;;;;;5050895;28;20212;-76
2021/09/24 09:40:07;;;;;;;14.27;7.47;;;24.00;99.90;;;;;;5050499;28;20190;-76
2021/09/24 09:42:39;;;;;;;17.00;6.80;;;24.00;99.90;;;;;;5048640;28;20212;-76
2021/09/24 09:45:07;;;;;;;19.10;6.50;;;24.20;99.90;;;;;;5050524;28;20198;-76
2021/09/24 09:47:35;;;;;;;14.00;6.77;;;24.80;99.90;;;;;;5047827;28;20253;-76
2021/09/24 09:50:12;;;;;;;14.70;6.47;;;25.30;99.90;;;;;;5048973;28;20235;-76
2021/09/24 09:53:04;;;;;;;15.07;6.10;;;25.30;99.90;;;;;;5051243;28;20211;-76
2021/09/24 09:55:39;;;;;;;14.33;6.23;;;24.70;99.90;;;;;;5049990;28;20254;-76
2021/09/24 09:58:09;;;;;;;11.53;5.40;;;24.60;99.90;;;;;;5051050;28;20199;-75
2021/09/24 10:00:50;;;;;;;12.40;5.60;;;24.60;99.90;;;;;;5047146;28;20184;-76
2021/09/24 10:03:16;;;;;;;13.53;5.00;;;24.80;99.90;;;;;;5059162;28;20196;-76
2021/09/24 10:05:43;;;;;;;11.13;4.83;;;25.80;99.90;;;;;;5049617;28;20196;-76
2021/09/24 10:08:26;;;;;;;9.77;5.00;;;25.60;99.90;;;;;;5051449;28;20203;-76
2021/09/24 10:10:59;;;;;;;15.80;5.00;;;25.40;99.90;;;;;;5048491;28;20675;-74
2021/09/24 10:13:27;;;;;;;9.93;4.57;;;24.80;99.90;;;;;;5050077;28;20180;-75
2021/09/24 10:15:53;;;;;;;11.57;5.03;;;24.60;99.90;;;;;;5050767;28;20207;-75
2021/09/24 10:18:19;;;;;;;11.67;4.33;;;24.40;99.90;;;;;;5048433;28;20241;-75
2021/09/24 10:20:47;;;;;;;10.83;4.47;;;24.40;99.90;;;;;;5040679;28;20192;-75
2021/09/24 10:23:13;;;;;;;10.90;5.00;;;24.50;99.90;;;;;;5049683;28;20278;-75
2021/09/24 10:25:41;;;;;;;11.47;4.47;;;24.60;99.90;;;;;;5047454;28;20189;-75
2021/09/24 10:28:10;;;;;;;9.07;3.97;;;25.20;99.90;;;;;;5042080;28;20180;-75
2021/09/24 10:30:36;;;;;;;9.20;3.83;;;25.70;99.90;;;;;;5064561;28;20303;-75
2021/09/24 10:33:05;;;;;;;8.27;3.55;;;26.00;99.90;;;;;;5049012;28;20181;-74
2021/09/24 10:35:53;;;;;;;10.68;3.28;;;26.20;99.90;;;;;;5049174;28;20231;-75
2021/09/24 10:38:21;;;;;;;9.63;2.88;;;26.60;99.90;;;;;;5045164;28;20182;-75
2021/09/24 10:40:55;;;;;;;9.00;3.47;;;26.60;99.90;;;;;;5049478;28;20212;-75
2021/09/24 10:43:21;;;;;;;10.15;3.55;;;26.40;99.90;;;;;;5051463;28;20685;-75
2021/09/24 10:45:47;;;;;;;9.15;3.47;;;26.10;99.90;;;;;;5047374;28;20682;-76
2021/09/24 10:48:21;;;;;;;11.57;3.97;;;26.00;99.90;;;;;;5049296;28;20267;-75
2021/09/24 10:51:02;;;;;;;9.05;3.65;;;25.60;99.90;;;;;;5050298;28;20627;-76
2021/09/24 10:53:47;;;;;;;9.27;3.90;;;25.30;99.90;;;;;;5048595;28;20655;-75
2021/09/24 10:56:15;;;;;;;7.63;3.60;;;24.60;99.90;;;;;;5048097;28;20236;-75
2021/09/24 10:58:43;;;;;;;11.87;3.20;;;24.60;99.90;;;;;;5047683;28;20225;-75
2021/09/24 11:01:30;;;;;;;11.03;3.43;;;24.60;99.90;;;;;;5048095;28;20189;-75
2021/09/24 11:03:58;;;;;;;8.97;3.43;;;24.80;99.90;;;;;;5056655;28;20203;-75
2021/09/24 11:06:43;;;;;;;11.32;3.20;;;24.80;99.90;;;;;;5046509;28;20184;-76
2021/09/24 11:09:12;;;;;;;9.80;3.13;;;25.00;99.90;;;;;;5040344;28;20406;-75
2021/09/24 11:11:40;;;;;;;8.47;2.80;;;24.90;99.90;;;;;;5048315;28;20261;-75
2021/09/24 11:14:29;;;;;;;7.90;2.60;;;24.80;99.90;;;;;;5041916;28;20177;-75
2021/09/24 11:16:56;;;;;;;6.37;2.80;;;24.60;99.90;;;;;;5078884;28;20200;-75
2021/09/24 11:19:47;;;;;;;11.83;2.73;;;24.60;99.90;;;;;;5049723;28;20184;-75
2021/09/24 11:22:13;;;;;;;7.23;2.07;;;24.70;99.90;;;;;;5049016;28;20192;-75
2021/09/24 11:24:48;;;;;;;9.40;2.40;;;24.60;99.90;;;;;;5063362;28;20177;-76
2021/09/24 11:27:30;;;;;;;6.77;2.23;;;24.50;99.90;;;;;;5046643;28;20191;-76
2021/09/24 11:30:02;;;;;;;5.83;2.43;;;24.50;99.90;;;;;;5032478;28;20264;-76
2021/09/24 11:32:38;;;;;;;6.83;2.40;;;24.40;99.90;;;;;;5049871;28;20990;-75
2021/09/24 11:35:08;;;;;;;7.17;2.90;;;24.40;99.90;;;;;;5047471;28;20275;-75
2021/09/24 11:37:36;;;;;;;7.67;3.10;;;24.50;99.90;;;;;;5046499;28;20234;-76
2021/09/24 11:40:14;;;;;;;6.57;2.73;;;24.50;99.90;;;;;;5045028;28;20203;-77
2021/09/24 11:42:46;;;;;;;6.60;2.60;;;24.30;99.90;;;;;;5073394;28;20227;-77
2021/09/24 11:45:21;;;;;;;7.63;2.37;;;24.10;99.90;;;;;;5045486;28;20612;-76
2021/09/24 11:47:58;;;;;;;7.20;2.37;;;23.90;99.90;;;;;;5047694;28;20184;-77
2021/09/24 11:50:25;;;;;;;7.30;2.07;;;24.00;99.90;;;;;;5048020;28;20237;-77
2021/09/24 11:52:55;;;;;;;4.47;2.13;;;24.10;99.90;;;;;;5045557;28;20180;-77
2021/09/24 11:55:24;;;;;;;7.90;1.97;;;23.90;99.90;;;;;;5049287;28;20279;-77
2021/09/24 11:58:10;;;;;;;5.00;1.53;;;24.00;99.90;;;;;;5032515;28;20183;-77
2021/09/24 12:00:53;;;;;;;3.53;1.40;;;24.50;99.90;;;;;;5049940;28;20184;-77
2021/09/24 12:03:27;;;;;;;3.90;1.13;;;24.90;99.90;;;;;;5049116;28;20196;-77
2021/09/24 12:06:08;;;;;;;3.53;1.10;;;25.10;99.90;;;;;;5065607;28;20638;-77
2021/09/24 12:08:47;;;;;;;3.53;1.20;;;25.20;99.90;;;;;;5048618;28;20220;-77
2021/09/24 12:11:22;;;;;;;4.43;1.47;;;25.20;99.90;;;;;;5047390;28;20246;-77
2021/09/24 12:13:54;;;;;;;4.67;1.03;;;25.30;99.90;;;;;;5059699;28;20249;-78
2021/09/24 12:16:22;;;;;;;2.73;0.80;;;25.20;99.90;;;;;;5049406;28;20238;-77
2021/09/24 12:19:02;;;;;;;2.27;1.00;;;25.20;99.90;;;;;;5048899;28;20806;-77
2021/09/24 12:21:50;;;;;;;3.13;1.10;;;25.10;99.90;;;;;;5047742;28;20584;-77
2021/09/24 12:24:16;;;;;;;2.47;1.00;;;24.90;99.90;;;;;;5046768;28;20264;-77
2021/09/24 12:26:44;;;;;;;2.07;0.83;;;24.70;99.90;;;;;;5031327;28;20275;-78
2021/09/24 12:29:16;;;;;;;2.67;1.20;;;24.60;99.90;;;;;;5039673;28;20186;-77
2021/09/24 12:31:47;;;;;;;2.83;1.10;;;24.60;99.90;;;;;;5045647;28;20212;-77
2021/09/24 12:34:16;;;;;;;2.43;0.93;;;24.60;99.90;;;;;;5039672;28;20235;-76
2021/09/24 12:37:01;;;;;;;2.37;1.10;;;24.60;99.90;;;;;;5044131;28;20208;-77
2021/09/24 12:39:30;;;;;;;3.20;1.60;;;24.40;99.90;;;;;;5025950;28;20183;-77